• Join FlightAware (Why Join?)
  • Login
  • US Flag 
08:00AM EST


 

Airport Tracker/Info


-or-


 

Live Flight TrackerFlight Track Log ✈ N8186F ✈ 29-Apr-2012 ✈ KRFD - KGYY

Flight Track Log - Related Links

Times and Time Zones

All times are in EDT time to prevent confusion due to time zone crossing. See the N8186F flight status page for this flight to view local times or setup timezone preferences in your user account.

Time Position Orientation Groundspeed Altitude Reporting Facility
EDT Latitude Longitude Course Direction KTS MPH feet Rate Location/Type
03:55PM 42.1799 -89.0536 132° Southeast  Level FlightAware Approximate
03:56PM 42.1675 -89.0187 142° Southeast  Level FlightAware Approximate
03:57PM 42.1551 -88.9838 179° South  Level FlightAware Approximate
03:58PM 42.1333 -88.9833 160° South 86 99 5,000  Level Chicago TRACON
03:59PM 42.1000 -88.9667 124° Southeast 102 117 5,100  Climbing Chicago TRACON
04:00PM 42.0833 -88.9333 143° Southeast 133 153 5,100  Level Chicago TRACON
04:00PM 42.0500 -88.9000 114° Southeast 144 166 5,100  Level Chicago TRACON
04:01PM 42.0333 -88.8500 114° Southeast 141 162 5,100  Level Chicago TRACON
04:02PM 42.0167 -88.8000 124° Southeast 145 167 5,100  Level Chicago TRACON
04:03PM 42.0000 -88.7667 109° East 142 163 5,100  Level Chicago TRACON
04:05PM 41.9833 -88.7000 124° Southeast 140 161 5,100  Level Chicago TRACON
04:06PM 41.9667 -88.6667 114° Southeast 141 162 5,100 -240 Level Chicago TRACON
04:06PM 41.9500 -88.6167 114° Southeast 148 170 4,700 -480 Descending Chicago TRACON
04:07PM 41.9333 -88.5667 132° Southeast 156 180 4,300 -300 Descending Chicago TRACON
04:09PM 41.9000 -88.5167 124° Southeast 137 158 4,100 -180 Descending Chicago TRACON
04:10PM 41.8833 -88.4833 90° East 127 146 4,000  Descending Chicago TRACON
04:10PM 41.8833 -88.4500 132° Southeast 125 144 4,100 -180 Climbing Chicago TRACON
04:12PM 41.8500 -88.4000 114° Southeast 138 159 3,700 -480 Descending Chicago TRACON
04:13PM 41.8333 -88.3500 124° Southeast 143 165 3,200 -360 Descending Chicago TRACON
04:13PM 41.8167 -88.3167 114° Southeast 134 154 3,100 -60 Descending Chicago TRACON
04:14PM 41.8000 -88.2667 124° Southeast 129 148 3,100  Level Chicago TRACON
04:15PM 41.7833 -88.2333 114° Southeast 130 150 3,100  Level Chicago TRACON
04:16PM 41.7667 -88.1833 124° Southeast 128 147 3,100  Level Chicago TRACON
04:17PM 41.7500 -88.1500 114° Southeast 130 150 3,100  Level Chicago TRACON
04:18PM 41.7333 -88.1000 124° Southeast 131 151 3,100  Level Chicago TRACON
04:19PM 41.7167 -88.0667 114° Southeast 131 151 3,100  Level Chicago TRACON
04:20PM 41.7000 -88.0167 143° Southeast 133 153 3,200  Climbing Chicago TRACON
04:21PM 41.6667 -87.9833 160° South 136 157 3,200 -60 Level Chicago TRACON
04:22PM 41.6333 -87.9667 159° South 137 158 3,100  Descending Chicago TRACON
04:23PM 41.6000 -87.9500 159° South 134 154 3,200 600 Climbing Chicago TRACON
04:25PM 41.5667 -87.9333 143° Southeast 86 99 4,700 840 Climbing Chicago TRACON
04:26PM 41.5500 -87.9167 149° Southeast 90 104 5,300 600 Climbing Chicago TRACON
04:27PM 41.5219 -87.8939 132° Southeast 79 91 6,100 480 Climbing Chicago Center
04:28PM 41.5050 -87.8692 142° Southeast 84 97 6,600 420 Climbing Chicago Center
04:29PM 41.4839 -87.8475 139° Southeast 90 104 7,000 180 Climbing Chicago Center
04:30PM 41.4586 -87.8178 140° Southeast 101 116 7,000  Level Chicago Center
04:31PM 41.4267 -87.7825 138° Southeast 122 140 7,000 60 Level Chicago Center
04:32PM 41.3969 -87.7472 140° Southeast 136 157 7,200 60 Climbing Chicago Center
04:33PM 41.3675 -87.7147 138° Southeast 136 157 7,200 -60 Level Chicago Center
04:34PM 41.3378 -87.6794 139° Southeast 136 157 7,100 -60 Descending Chicago Center
04:35PM 41.3100 -87.6469 139° Southeast 136 157 7,100  Level Chicago Center
04:36PM 41.2825 -87.6147 141° Southeast 136 157 7,100  Level Chicago Center
04:37PM 41.2528 -87.5822 140° Southeast 136 157 7,100  Level Chicago Center
04:38PM 41.2211 -87.5472 141° Southeast 136 157 7,100  Level Chicago Center
04:39PM 41.1914 -87.5150 138° Southeast 136 157 7,100  Level Chicago Center
04:40PM 41.1617 -87.4800 144° Southeast 136 157 7,100  Level Chicago Center
04:41PM 41.1278 -87.4478 138° Southeast 136 157 7,100  Level Chicago Center
04:42PM 41.0958 -87.4103 145° Southeast 136 157 7,100  Level Chicago Center
04:43PM 41.0725 -87.3889 139° Southeast 146 168 7,100  Level Chicago Center
04:44PM 41.0469 -87.3594 130° Southeast 146 168 7,100  Level Chicago Center
04:44PM 41.0364 -87.3431 141° Southeast 136 157 7,100  Level Chicago Center
04:45PM 41.0044 -87.3083 139° Southeast 136 157 7,100  Level Chicago Center
04:46PM 40.9744 -87.2736 142° Southeast 136 157 7,100  Level Chicago Center
04:47PM 40.9428 -87.2414 142° Southeast 136 157 7,100  Level Chicago Center
04:48PM 40.9172 -87.2150 141° Southeast 145 167 7,100  Level Chicago Center
04:49PM 40.8894 -87.1856 136° Southeast 146 168 7,100  Level Chicago Center
04:50PM 40.8597 -87.1481 137° Southeast 145 167 7,200 60 Climbing Chicago Center
04:50PM 40.8511 -87.1375 139° Southeast 136 157 7,200 -120 Level Chicago Center
04:51PM 40.8211 -87.1028 145° Southeast 136 157 7,100 -60 Descending Chicago Center
04:52PM 40.7872 -87.0711 143° Southeast 141 162 7,100  Level Chicago Center
04:53PM 40.7658 -87.0497 141° Southeast 145 167 7,100  Level Chicago Center
04:54PM 40.7383 -87.0206 141° Southeast 147 169 7,100  Level Chicago Center
04:55PM 40.7061 -86.9861 139° Southeast 146 168 7,100  Level Chicago Center
04:56PM 40.6719 -86.9464 139° Southeast 147 169 7,100  Level Chicago Center
04:57PM 40.6422 -86.9119 141° Southeast 150 173 7,100  Level Chicago Center
04:58PM 40.6100 -86.8775 139° Southeast 146 168 7,200  Climbing Chicago Center
04:59PM 40.5822 -86.8456 143° Southeast 147 169 7,100  Descending Chicago Center
05:00PM 40.5503 -86.8142 139° Southeast 144 166 7,200  Climbing Chicago Center
05:01PM 40.5203 -86.7797 143° Southeast 145 167 7,200 -60 Level Chicago Center
05:02PM 40.4861 -86.7456 137° Southeast 144 166 7,100  Descending Chicago Center
05:03PM 40.4583 -86.7111 141° Southeast 144 166 7,200  Climbing Chicago Center
05:04PM 40.4242 -86.6744 142° Southeast 147 169 7,100  Descending Chicago Center
05:05PM 40.3964 -86.6456 142° Southeast 145 167 7,200  Climbing Chicago Center
05:06PM 40.3600 -86.6089 136° Southeast 149 171 7,200  Level Chicago Center
05:07PM 40.3000 -86.5333 143° Southeast 151 174 7,200 -300 Level Indianapolis TRACON
05:08PM 40.2667 -86.5000 143° Southeast 155 178 6,400 -960 Descending Indianapolis TRACON
05:10PM 40.2333 -86.4667 143° Southeast 165 190 5,300 -1,020 Descending Indianapolis TRACON
05:11PM 40.2000 -86.4333 331° Northwest 168 193 4,400 -900 Descending Indianapolis TRACON
05:18PM 40.5049 -86.6541 331° Northwest  Level FlightAware Approximate
05:19PM 40.5469 -86.6847 331° Northwest  Level FlightAware Approximate
05:20PM 40.5889 -86.7154 331° Northwest  Level FlightAware Approximate
05:21PM 40.6310 -86.7461 331° Northwest  Level FlightAware Approximate
05:22PM 40.6730 -86.7768 331° Northwest  Level FlightAware Approximate
05:23PM 40.7149 -86.8076 331° Northwest  Level FlightAware Approximate
05:24PM 40.7569 -86.8384 331° Northwest  Level FlightAware Approximate
05:25PM 40.7989 -86.8692 331° Northwest  Level FlightAware Approximate
05:26PM 40.8409 -86.9001 331° Northwest  Level FlightAware Approximate
05:27PM 40.8828 -86.9310 331° Northwest  Level FlightAware Approximate
05:28PM 40.9248 -86.9620 331° Northwest  Level FlightAware Approximate
05:29PM 40.9667 -86.9930 331° Northwest  Level FlightAware Approximate
05:30PM 41.0086 -87.0240 331° Northwest  Level FlightAware Approximate
05:31PM 41.0505 -87.0551 331° Northwest  Level FlightAware Approximate
05:32PM 41.0925 -87.0862 331° Northwest  Level FlightAware Approximate
05:33PM 41.1344 -87.1174 331° Northwest  Level FlightAware Approximate
05:34PM 41.1763 -87.1486 331° Northwest  Level FlightAware Approximate
05:35PM 41.2182 -87.1798 331° Northwest  Level FlightAware Approximate
05:36PM 41.2600 -87.2111 331° Northwest  Level FlightAware Approximate
05:37PM 41.3019 -87.2424 331° Northwest  Level FlightAware Approximate
05:38PM 41.3438 -87.2738 331° Northwest  Level FlightAware Approximate
05:39PM 41.3857 -87.3052 331° Northwest  Level FlightAware Approximate